Terminal Aerodrome Forecast
Issued by NWS

Home | Current Version | Previous Version | Text Only | Print | Product List | Glossary On
Versions: 1 2 3 4 5 6 7 8 9 10 11 12 13 14 15 16
000
FTUS42 KFFC 081743
TAFPDK
TAF
KPDK 081743Z 0818/0918 25009KT P6SM SCT045 BKN120
     FM081900 27012G22KT P6SM BKN045
      TEMPO 0820/0824 6SM -SHRA BKN035
     FM090000 30010G18KT P6SM VCSH OVC025
     FM090500 29009G16KT P6SM BKN015 PROB30 0905/0911 6SM -SHSN
     FM091100 29010G18KT P6SM OVC025 PROB30 0911/0917 6SM -SHSN
      BKN015=

USA.gov is the U.S. government's official web portal to all federal, state and local government web resources and services.